Rey — V3MW6 — position and weather

sailwx.info

Track history (hours):
 
Tides and Currents Weather Stations Pressure Air Temp Water Temp Dewpoint Dewpoint Depression Visibility Wind Speed Wind Dir Waves Ship Positions

Rey

Last reported at 2017-Nov-24 21:48 UTC. Time now 2017-Dec-11 09:52 UTC.
Position N 27°53' W 015°18'.
Warning: this ship's position is 16 days out of date.

Length 72 m; draft 5.8 m.

Type: Cargo ship. MMSI: 312448000.

Date/timePositionNaut miles runAvg speedWind from/ knotsBaromVisibWave heightAir tempDewpointWater temp
2017-Nov-24 21:48N 27°53' W 015°18'411.3
2017-Nov-24 21:26N 27°57' W 015°18'511.4
2017-Nov-24 21:00N 28°01' W 015°20'511.1
2017-Nov-24 20:30N 28°06' W 015°23'3 6.7
2017-Nov-24 20:00N 28°09' W 015°25'0 0.0
2017-Nov-24 19:30N 28°09' W 015°25'0 0.0
2017-Nov-24 19:00N 28°09' W 015°25'0 0.0
2017-Nov-24 18:30N 28°09' W 015°25'0 0.0
2017-Nov-24 18:00N 28°09' W 015°25'0 0.0
2017-Nov-24 17:30N 28°09' W 015°25'0 0.0
2017-Nov-24 17:00N 28°09' W 015°25'0 0.0
2017-Nov-24 16:30N 28°09' W 015°25'0 0.0
2017-Nov-24 16:00N 28°09' W 015°25'0 0.0
2017-Nov-24 15:30N 28°09' W 015°25'0 0.0
2017-Nov-24 15:00N 28°09' W 015°25'0 0.0
2017-Nov-24 14:30N 28°09' W 015°25'0 0.0
2017-Nov-24 14:00N 28°09' W 015°25'0 0.0
2017-Nov-24 13:30N 28°09' W 015°25'0 0.0
2017-Nov-24 13:00N 28°09' W 015°25'0 0.0
2017-Nov-24 12:30N 28°09' W 015°25'0 0.0
2017-Nov-24 12:00N 28°09' W 015°25'0 0.0
2017-Nov-24 11:30N 28°09' W 015°25'0 0.0
2017-Nov-24 11:00N 28°09' W 015°25'0 0.0
2017-Nov-24 10:30N 28°09' W 015°25'0 0.0
2017-Nov-24 10:00N 28°09' W 015°25'0 0.0
2017-Nov-24 09:30N 28°09' W 015°25'0 0.0
2017-Nov-24 09:00N 28°09' W 015°25'0 0.0
2017-Nov-24 08:30N 28°09' W 015°25'0 0.0
2017-Nov-24 08:00N 28°09' W 015°25'0 0.0
2017-Nov-24 07:30N 28°09' W 015°25'0 0.0
2017-Nov-24 07:00N 28°09' W 015°25'0 0.0
2017-Nov-24 06:30N 28°09' W 015°25'0 0.0
2017-Nov-24 06:00N 28°09' W 015°25'0 0.0
2017-Nov-24 05:30N 28°09' W 015°25'0 0.0
2017-Nov-24 05:00N 28°09' W 015°25'0 0.0
2017-Nov-24 04:30N 28°09' W 015°25'0 0.0
2017-Nov-24 04:00N 28°09' W 015°25'0 0.0
2017-Nov-24 03:30N 28°09' W 015°25'0 0.0
2017-Nov-24 03:00N 28°09' W 015°25'0 0.0
2017-Nov-24 02:30N 28°09' W 015°25'0 0.0
2017-Nov-24 02:00N 28°09' W 015°25'0 0.0
2017-Nov-24 01:30N 28°09' W 015°25'0 0.0
2017-Nov-24 01:00N 28°09' W 015°25'0 0.0
2017-Nov-24 00:30N 28°09' W 015°25'0 0.0
2017-Nov-24 00:00N 28°09' W 015°25'0 0.0
2017-Nov-23 23:30N 28°09' W 015°25'0 0.0
2017-Nov-23 23:00N 28°09' W 015°25'0 0.0
2017-Nov-23 22:30N 28°09' W 015°25'0 0.0
2017-Nov-23 22:00N 28°09' W 015°25'0 0.0
2017-Nov-23 21:30N 28°09' W 015°25'0 0.0
2017-Nov-23 21:00N 28°09' W 015°25'0 0.0
2017-Nov-23 20:30N 28°09' W 015°25'0 0.0
2017-Nov-23 20:00N 28°09' W 015°25'0 0.0
2017-Nov-23 19:30N 28°09' W 015°25'0 0.0
2017-Nov-23 19:00N 28°09' W 015°25'0 0.0
2017-Nov-23 18:30N 28°09' W 015°25'0 0.0
2017-Nov-23 18:00N 28°09' W 015°25'0 0.0
2017-Nov-23 17:30N 28°09' W 015°25'0 0.0
2017-Nov-23 17:00N 28°09' W 015°25'0 0.0
2017-Nov-23 16:30N 28°09' W 015°25'1 1.1
2017-Nov-23 16:00N 28°08' W 015°25'2 3.2
2017-Nov-23 15:30N 28°07' W 015°24'2 3.2
2017-Nov-23 15:00N 28°06' W 015°22'0 1.0
2017-Nov-23 14:30N 28°06' W 015°22'2 3.5
2017-Nov-23 14:00N 28°04' W 015°21'611.2
2017-Nov-23 13:30N 27°59' W 015°19'510.7
2017-Nov-23 13:00N 27°54' W 015°18'  
2017-Nov-15 22:31N 27°52' W 015°18'011.4
2017-Nov-15 22:29N 27°53' W 015°18'611.4
2017-Nov-15 22:00N 27°58' W 015°19'611.5
2017-Nov-15 21:30N 28°04' W 015°21'510.3
2017-Nov-15 21:00N 28°07' W 015°25'1 2.6
2017-Nov-15 20:30N 28°09' W 015°25'0 0.0
2017-Nov-15 20:00N 28°09' W 015°25'0 0.0
2017-Nov-15 19:30N 28°09' W 015°25'0 0.0
2017-Nov-15 19:00N 28°09' W 015°25'0 0.0
2017-Nov-15 18:30N 28°09' W 015°25'0 0.0
2017-Nov-15 18:00N 28°09' W 015°25'0 0.0
2017-Nov-15 17:30N 28°09' W 015°25'0 0.0
2017-Nov-15 17:00N 28°09' W 015°25'0 0.0
2017-Nov-15 16:30N 28°09' W 015°25'0 0.0
2017-Nov-15 16:00N 28°09' W 015°25'0 0.0
2017-Nov-15 15:30N 28°09' W 015°25'0 0.0
2017-Nov-15 15:00N 28°09' W 015°25'0 0.0
2017-Nov-15 14:30N 28°09' W 015°25'0 0.0
2017-Nov-15 14:00N 28°09' W 015°25'0 0.0
2017-Nov-15 13:30N 28°09' W 015°25'0 0.0
2017-Nov-15 13:00N 28°09' W 015°25'0 0.0
2017-Nov-15 12:30N 28°09' W 015°25'0 0.0
2017-Nov-15 12:00N 28°09' W 015°25'0 0.0
2017-Nov-15 11:30N 28°09' W 015°25'0 0.0
2017-Nov-15 11:00N 28°09' W 015°25'0 0.0
2017-Nov-15 10:30N 28°09' W 015°25'0 0.0
2017-Nov-15 10:00N 28°09' W 015°25'0 0.0
2017-Nov-15 09:30N 28°09' W 015°25'0 0.0
2017-Nov-15 09:00N 28°09' W 015°25'0 0.0
2017-Nov-15 08:30N 28°09' W 015°25'0 0.0
2017-Nov-15 08:00N 28°09' W 015°25'0 0.0
2017-Nov-15 07:30N 28°09' W 015°25'0 0.0
2017-Nov-15 07:00N 28°09' W 015°25'0 0.0
2017-Nov-15 06:30N 28°09' W 015°25'0 0.0
2017-Nov-15 06:00N 28°09' W 015°25'0 0.0
2017-Nov-15 05:30N 28°09' W 015°25'0 0.0
2017-Nov-15 05:00N 28°09' W 015°25'0 0.0
2017-Nov-15 04:30N 28°09' W 015°25'0 0.0
2017-Nov-15 04:00N 28°09' W 015°25'0 0.0
2017-Nov-15 03:30N 28°09' W 015°25'0 0.0
2017-Nov-15 03:00N 28°09' W 015°25'0 0.0
2017-Nov-15 02:30N 28°09' W 015°25'0 0.0
2017-Nov-15 02:00N 28°09' W 015°25'0 0.0
2017-Nov-15 01:30N 28°09' W 015°25'0 0.0
2017-Nov-15 01:00N 28°09' W 015°25'0 0.0
2017-Nov-15 00:30N 28°09' W 015°25'0 0.0
2017-Nov-15 00:00N 28°09' W 015°25'0 0.0
2017-Nov-14 23:30N 28°09' W 015°25'0 0.0
2017-Nov-14 23:00N 28°09' W 015°25'0 0.0
2017-Nov-14 22:30N 28°09' W 015°25'0 0.0
2017-Nov-14 22:00N 28°09' W 015°25'  
Track history (hours):
 
Tides and Currents Weather Stations Pressure Air Temp Water Temp Dewpoint Dewpoint Depression Visibility Wind Speed Wind Dir Waves Ship Positions

Rey

Last reported at 2017-Nov-24 21:48 UTC. Time now 2017-Dec-11 09:52 UTC.
Position N 27°53' W 015°18'.
Warning: this ship's position is 16 days out of date.

Length 72 m; draft 5.8 m.

Type: Cargo ship. MMSI: 312448000.

Date/timePositionNaut miles runAvg speedWind from/ knotsBaromVisibWave heightAir tempDewpointWater temp
2017-Nov-24 21:48N 27°53' W 015°18'411.3
2017-Nov-24 21:26N 27°57' W 015°18'511.4
2017-Nov-24 21:00N 28°01' W 015°20'511.1
2017-Nov-24 20:30N 28°06' W 015°23'3 6.7
2017-Nov-24 20:00N 28°09' W 015°25'0 0.0
2017-Nov-24 19:30N 28°09' W 015°25'0 0.0
2017-Nov-24 19:00N 28°09' W 015°25'0 0.0
2017-Nov-24 18:30N 28°09' W 015°25'0 0.0
2017-Nov-24 18:00N 28°09' W 015°25'0 0.0
2017-Nov-24 17:30N 28°09' W 015°25'0 0.0
2017-Nov-24 17:00N 28°09' W 015°25'0 0.0
2017-Nov-24 16:30N 28°09' W 015°25'0 0.0
2017-Nov-24 16:00N 28°09' W 015°25'0 0.0
2017-Nov-24 15:30N 28°09' W 015°25'0 0.0
2017-Nov-24 15:00N 28°09' W 015°25'0 0.0
2017-Nov-24 14:30N 28°09' W 015°25'0 0.0
2017-Nov-24 14:00N 28°09' W 015°25'0 0.0
2017-Nov-24 13:30N 28°09' W 015°25'0 0.0
2017-Nov-24 13:00N 28°09' W 015°25'0 0.0
2017-Nov-24 12:30N 28°09' W 015°25'0 0.0
2017-Nov-24 12:00N 28°09' W 015°25'0 0.0
2017-Nov-24 11:30N 28°09' W 015°25'0 0.0
2017-Nov-24 11:00N 28°09' W 015°25'0 0.0
2017-Nov-24 10:30N 28°09' W 015°25'0 0.0
2017-Nov-24 10:00N 28°09' W 015°25'0 0.0
2017-Nov-24 09:30N 28°09' W 015°25'0 0.0
2017-Nov-24 09:00N 28°09' W 015°25'0 0.0
2017-Nov-24 08:30N 28°09' W 015°25'0 0.0
2017-Nov-24 08:00N 28°09' W 015°25'0 0.0
2017-Nov-24 07:30N 28°09' W 015°25'0 0.0
2017-Nov-24 07:00N 28°09' W 015°25'0 0.0
2017-Nov-24 06:30N 28°09' W 015°25'0 0.0
2017-Nov-24 06:00N 28°09' W 015°25'0 0.0
2017-Nov-24 05:30N 28°09' W 015°25'0 0.0
2017-Nov-24 05:00N 28°09' W 015°25'0 0.0
2017-Nov-24 04:30N 28°09' W 015°25'0 0.0
2017-Nov-24 04:00N 28°09' W 015°25'0 0.0
2017-Nov-24 03:30N 28°09' W 015°25'0 0.0
2017-Nov-24 03:00N 28°09' W 015°25'0 0.0
2017-Nov-24 02:30N 28°09' W 015°25'0 0.0
2017-Nov-24 02:00N 28°09' W 015°25'0 0.0
2017-Nov-24 01:30N 28°09' W 015°25'0 0.0
2017-Nov-24 01:00N 28°09' W 015°25'0 0.0
2017-Nov-24 00:30N 28°09' W 015°25'0 0.0
2017-Nov-24 00:00N 28°09' W 015°25'0 0.0
2017-Nov-23 23:30N 28°09' W 015°25'0 0.0
2017-Nov-23 23:00N 28°09' W 015°25'0 0.0
2017-Nov-23 22:30N 28°09' W 015°25'0 0.0
2017-Nov-23 22:00N 28°09' W 015°25'0 0.0
2017-Nov-23 21:30N 28°09' W 015°25'0 0.0
2017-Nov-23 21:00N 28°09' W 015°25'0 0.0
2017-Nov-23 20:30N 28°09' W 015°25'0 0.0
2017-Nov-23 20:00N 28°09' W 015°25'0 0.0
2017-Nov-23 19:30N 28°09' W 015°25'0 0.0
2017-Nov-23 19:00N 28°09' W 015°25'0 0.0
2017-Nov-23 18:30N 28°09' W 015°25'0 0.0
2017-Nov-23 18:00N 28°09' W 015°25'0 0.0
2017-Nov-23 17:30N 28°09' W 015°25'0 0.0
2017-Nov-23 17:00N 28°09' W 015°25'0 0.0
2017-Nov-23 16:30N 28°09' W 015°25'1 1.1
2017-Nov-23 16:00N 28°08' W 015°25'2 3.2
2017-Nov-23 15:30N 28°07' W 015°24'2 3.2
2017-Nov-23 15:00N 28°06' W 015°22'0 1.0
2017-Nov-23 14:30N 28°06' W 015°22'2 3.5
2017-Nov-23 14:00N 28°04' W 015°21'611.2
2017-Nov-23 13:30N 27°59' W 015°19'510.7
2017-Nov-23 13:00N 27°54' W 015°18'  
2017-Nov-15 22:31N 27°52' W 015°18'011.4
2017-Nov-15 22:29N 27°53' W 015°18'611.4
2017-Nov-15 22:00N 27°58' W 015°19'611.5
2017-Nov-15 21:30N 28°04' W 015°21'510.3
2017-Nov-15 21:00N 28°07' W 015°25'1 2.6
2017-Nov-15 20:30N 28°09' W 015°25'0 0.0
2017-Nov-15 20:00N 28°09' W 015°25'0 0.0
2017-Nov-15 19:30N 28°09' W 015°25'0 0.0
2017-Nov-15 19:00N 28°09' W 015°25'0 0.0
2017-Nov-15 18:30N 28°09' W 015°25'0 0.0
2017-Nov-15 18:00N 28°09' W 015°25'0 0.0
2017-Nov-15 17:30N 28°09' W 015°25'0 0.0
2017-Nov-15 17:00N 28°09' W 015°25'0 0.0
2017-Nov-15 16:30N 28°09' W 015°25'0 0.0
2017-Nov-15 16:00N 28°09' W 015°25'0 0.0
2017-Nov-15 15:30N 28°09' W 015°25'0 0.0
2017-Nov-15 15:00N 28°09' W 015°25'0 0.0
2017-Nov-15 14:30N 28°09' W 015°25'0 0.0
2017-Nov-15 14:00N 28°09' W 015°25'0 0.0
2017-Nov-15 13:30N 28°09' W 015°25'0 0.0
2017-Nov-15 13:00N 28°09' W 015°25'0 0.0
2017-Nov-15 12:30N 28°09' W 015°25'0 0.0
2017-Nov-15 12:00N 28°09' W 015°25'0 0.0
2017-Nov-15 11:30N 28°09' W 015°25'0 0.0
2017-Nov-15 11:00N 28°09' W 015°25'0 0.0
2017-Nov-15 10:30N 28°09' W 015°25'0 0.0
2017-Nov-15 10:00N 28°09' W 015°25'0 0.0
2017-Nov-15 09:30N 28°09' W 015°25'0 0.0
2017-Nov-15 09:00N 28°09' W 015°25'0 0.0
2017-Nov-15 08:30N 28°09' W 015°25'0 0.0
2017-Nov-15 08:00N 28°09' W 015°25'0 0.0
2017-Nov-15 07:30N 28°09' W 015°25'0 0.0
2017-Nov-15 07:00N 28°09' W 015°25'0 0.0
2017-Nov-15 06:30N 28°09' W 015°25'0 0.0
2017-Nov-15 06:00N 28°09' W 015°25'0 0.0
2017-Nov-15 05:30N 28°09' W 015°25'0 0.0
2017-Nov-15 05:00N 28°09' W 015°25'0 0.0
2017-Nov-15 04:30N 28°09' W 015°25'0 0.0
2017-Nov-15 04:00N 28°09' W 015°25'0 0.0
2017-Nov-15 03:30N 28°09' W 015°25'0 0.0
2017-Nov-15 03:00N 28°09' W 015°25'0 0.0
2017-Nov-15 02:30N 28°09' W 015°25'0 0.0
2017-Nov-15 02:00N 28°09' W 015°25'0 0.0
2017-Nov-15 01:30N 28°09' W 015°25'0 0.0
2017-Nov-15 01:00N 28°09' W 015°25'0 0.0
2017-Nov-15 00:30N 28°09' W 015°25'0 0.0
2017-Nov-15 00:00N 28°09' W 015°25'0 0.0
2017-Nov-14 23:30N 28°09' W 015°25'0 0.0
2017-Nov-14 23:00N 28°09' W 015°25'0 0.0
2017-Nov-14 22:30N 28°09' W 015°25'0 0.0
2017-Nov-14 22:00N 28°09' W 015°25'  

Dump ship's entire track history